Time;durP1;ratioP1;P1;durP2;ratioP2;P2;SDS_P1;SDS_P2;PMS_P1;PMS_P2;Temp;Humidity;BMP_temperature;BMP_pressure;BME280_temperature;BME280_humidity;BME280_pressure;Samples;Min_cycle;Max_cycle;Signal;HPM_P1;HPM_P2
2022/04/01 00:00:19;;;;;;;10.80;6.03;;;4.10;99.90;;;;;;10513337;28;20649;-66
2022/04/01 00:05:21;;;;;;;10.68;5.75;;;4.00;99.90;;;;;;10520720;28;20063;-66
2022/04/01 00:10:23;;;;;;;14.27;6.70;;;4.00;99.90;;;;;;10536773;28;20067;-66
2022/04/01 00:15:24;;;;;;;12.73;6.70;;;4.00;99.90;;;;;;10516472;28;20109;-66
2022/04/01 00:20:27;;;;;;;12.88;6.70;;;4.00;99.90;;;;;;10530032;28;20047;-66
2022/04/01 00:25:29;;;;;;;12.50;6.28;;;4.00;99.90;;;;;;10520873;28;20047;-66
2022/04/01 00:30:33;;;;;;;13.20;6.28;;;4.00;99.90;;;;;;10525870;28;20055;-66
2022/04/01 00:35:36;;;;;;;10.85;5.95;;;4.00;99.90;;;;;;10531342;28;20109;-67
2022/04/01 00:40:39;;;;;;;11.77;6.15;;;4.00;99.90;;;;;;10521438;28;20674;-67
2022/04/01 00:45:40;;;;;;;10.25;5.25;;;3.90;99.90;;;;;;10525479;28;20056;-66
2022/04/01 00:50:43;;;;;;;8.98;5.07;;;3.80;99.90;;;;;;10521776;28;20484;-66
2022/04/01 00:55:46;;;;;;;11.43;5.40;;;3.80;99.90;;;;;;10493338;28;20056;-66
2022/04/01 01:00:47;;;;;;;11.10;5.75;;;3.70;99.90;;;;;;10521336;28;20055;-67
2022/04/01 01:05:49;;;;;;;9.93;5.20;;;3.70;99.90;;;;;;10527879;28;20414;-65
2022/04/01 01:10:51;;;;;;;10.30;6.10;;;3.70;99.90;;;;;;10516786;28;20043;-65
2022/04/01 01:15:53;;;;;;;11.02;5.95;;;3.70;99.90;;;;;;10505143;28;20098;-67
2022/04/01 01:20:54;;;;;;;10.93;5.32;;;3.70;99.90;;;;;;10514412;28;20048;-67
2022/04/01 01:25:57;;;;;;;10.85;6.05;;;3.70;99.90;;;;;;10511088;28;20044;-64
2022/04/01 01:30:58;;;;;;;8.63;4.97;;;3.70;99.90;;;;;;10509231;28;20040;-66
2022/04/01 01:36:00;;;;;;;9.43;5.72;;;3.70;99.90;;;;;;10516343;28;20083;-66
2022/04/01 01:41:02;;;;;;;8.48;5.13;;;3.70;99.90;;;;;;10521208;28;20036;-67
2022/04/01 01:46:04;;;;;;;8.30;5.30;;;3.70;99.90;;;;;;10524378;28;20055;-66
2022/04/01 01:56:26;;;;;;;12.85;5.88;;;3.70;99.90;;;;;;10517881;28;20483;-66
2022/04/01 02:01:28;;;;;;;14.57;5.65;;;3.70;99.90;;;;;;10510793;28;20047;-66
2022/04/01 02:06:30;;;;;;;10.27;5.72;;;3.70;99.90;;;;;;10526202;28;20051;-66
2022/04/01 02:11:32;;;;;;;8.77;5.03;;;3.80;99.90;;;;;;10513201;28;20509;-66
2022/04/01 02:16:34;;;;;;;8.50;4.68;;;3.80;99.90;;;;;;10512705;28;20048;-66
2022/04/01 02:21:35;;;;;;;9.50;4.75;;;3.80;99.90;;;;;;10521570;28;20046;-66
2022/04/01 02:26:37;;;;;;;8.52;4.78;;;3.70;99.90;;;;;;10525867;28;20047;-66
2022/04/01 02:31:39;;;;;;;9.70;4.97;;;3.70;99.90;;;;;;10533044;28;20109;-66
2022/04/01 02:36:40;;;;;;;9.32;4.75;;;3.70;99.90;;;;;;10522532;28;20058;-66
2022/04/01 02:41:42;;;;;;;8.45;4.43;;;3.70;99.90;;;;;;10527783;28;20052;-66
2022/04/01 02:46:45;;;;;;;9.70;4.97;;;3.70;99.90;;;;;;10519460;28;20113;-65
2022/04/01 02:51:48;;;;;;;7.88;4.97;;;3.70;99.90;;;;;;10507877;28;20109;-66
2022/04/01 02:56:50;;;;;;;9.95;5.38;;;3.70;99.90;;;;;;10530451;28;20040;-65
2022/04/01 03:01:52;;;;;;;8.07;4.60;;;3.70;99.90;;;;;;10507458;28;20108;-66
2022/04/01 03:06:54;;;;;;;7.82;4.93;;;3.70;99.90;;;;;;10524685;28;20444;-65
2022/04/01 03:11:56;;;;;;;7.15;4.10;;;3.70;99.90;;;;;;10516179;28;20039;-65
2022/04/01 03:16:57;;;;;;;7.00;4.22;;;3.70;99.90;;;;;;10523561;28;20108;-65
2022/04/01 03:22:00;;;;;;;7.85;4.18;;;3.70;99.90;;;;;;10527064;28;20486;-65
2022/04/01 03:27:02;;;;;;;6.70;3.90;;;3.70;99.90;;;;;;10535247;28;20062;-65
2022/04/01 03:32:04;;;;;;;5.97;3.55;;;3.70;99.90;;;;;;10527692;28;20191;-65
2022/04/01 03:37:06;;;;;;;7.13;3.47;;;3.70;99.90;;;;;;10534903;28;20066;-66
2022/04/01 03:42:08;;;;;;;5.20;3.58;;;3.60;99.90;;;;;;10525006;28;20105;-66
2022/04/01 03:47:11;;;;;;;4.57;3.35;;;3.60;99.90;;;;;;10527566;28;20077;-65
2022/04/01 03:52:14;;;;;;;5.22;3.47;;;3.60;99.90;;;;;;10525764;28;20043;-65
2022/04/01 03:57:20;;;;;;;6.68;3.42;;;3.60;99.90;;;;;;10540793;28;20497;-66
2022/04/01 04:02:22;;;;;;;6.13;3.55;;;3.50;99.90;;;;;;10516244;28;20490;-65
2022/04/01 04:07:25;;;;;;;5.35;3.25;;;3.50;99.90;;;;;;10511277;28;20054;-65
2022/04/01 04:12:30;;;;;;;8.07;3.55;;;3.50;99.90;;;;;;10537307;28;20482;-66
2022/04/01 04:17:39;;;;;;;6.50;3.22;;;3.50;99.90;;;;;;10532566;28;20052;-66
2022/04/01 04:23:00;;;;;;;6.07;3.45;;;3.50;99.90;;;;;;10521708;28;20176;-65
2022/04/01 04:28:08;;;;;;;6.60;3.33;;;3.50;99.90;;;;;;10516359;28;20283;-65
2022/04/01 04:33:11;;;;;;;4.88;2.78;;;3.50;99.90;;;;;;10530298;28;20055;-65
2022/04/01 04:38:14;;;;;;;6.55;3.28;;;3.50;99.90;;;;;;10528081;28;20444;-66
2022/04/01 04:43:21;;;;;;;6.65;3.70;;;3.40;99.90;;;;;;10517736;28;20486;-66
2022/04/01 04:48:24;;;;;;;6.32;3.58;;;3.40;99.90;;;;;;10518037;28;20044;-66
2022/04/01 04:53:28;;;;;;;6.72;3.70;;;3.30;99.90;;;;;;10477057;28;20048;-66
2022/04/01 04:58:34;;;;;;;5.20;2.78;;;3.30;99.90;;;;;;10500021;28;20040;-66
2022/04/01 05:03:53;;;;;;;5.97;3.30;;;3.30;99.90;;;;;;10518864;28;20060;-64
2022/04/01 05:09:08;;;;;;;6.25;2.65;;;3.30;99.90;;;;;;10517174;28;20059;-64
2022/04/01 05:14:16;;;;;;;4.85;3.10;;;3.20;99.90;;;;;;10523665;28;20414;-68
2022/04/01 05:19:27;;;;;;;5.10;2.40;;;3.30;99.90;;;;;;10518232;28;20050;-68
2022/04/01 05:24:38;;;;;;;5.78;3.20;;;3.30;99.90;;;;;;10497777;28;20048;-65
2022/04/01 05:29:43;;;;;;;5.43;3.15;;;3.40;99.90;;;;;;10503078;28;20047;-66
2022/04/01 05:34:47;;;;;;;5.53;2.95;;;3.40;99.90;;;;;;10509433;28;20105;-65
2022/04/01 05:39:50;;;;;;;6.25;3.20;;;3.20;99.90;;;;;;10515865;28;20486;-65
2022/04/01 05:44:52;;;;;;;8.80;4.32;;;3.20;99.90;;;;;;10521248;28;20101;-65
2022/04/01 05:49:57;;;;;;;5.47;3.33;;;3.20;99.90;;;;;;10512983;28;20047;-65
2022/04/01 05:55:00;;;;;;;9.00;3.80;;;3.10;99.90;;;;;;10520134;28;20158;-64
2022/04/01 06:00:05;;;;;;;8.57;3.85;;;3.10;99.90;;;;;;10513620;28;20043;-65
2022/04/01 06:05:31;;;;;;;6.32;3.45;;;3.00;99.90;;;;;;10435276;28;20040;-64
2022/04/01 06:10:57;;;;;;;7.75;3.80;;;3.00;99.90;;;;;;10528577;28;20044;-66
2022/04/01 06:16:37;;;;;;;7.30;2.90;;;3.00;99.90;;;;;;10540319;28;20051;-67
2022/04/01 06:21:54;;;;;;;6.78;3.33;;;3.00;99.90;;;;;;10521157;28;20043;-67
2022/04/01 06:26:58;;;;;;;6.45;3.38;;;3.00;99.90;;;;;;10511331;28;20098;-66
2022/04/01 06:32:06;;;;;;;4.05;2.90;;;3.00;99.90;;;;;;10531000;28;20062;-67
2022/04/01 06:37:14;;;;;;;6.97;3.15;;;3.00;99.90;;;;;;10529075;28;20452;-67
2022/04/01 06:42:19;;;;;;;7.55;2.78;;;3.00;99.90;;;;;;10530154;28;20732;-67
2022/04/01 06:47:21;;;;;;;6.18;2.78;;;3.00;99.90;;;;;;10523122;28;20439;-68
2022/04/01 06:52:26;;;;;;;7.47;3.17;;;3.00;99.90;;;;;;10518107;28;20043;-68
2022/04/01 06:57:28;;;;;;;8.88;3.97;;;3.00;99.90;;;;;;10521955;28;20101;-68
2022/04/01 07:02:29;;;;;;;5.43;3.15;;;3.00;99.90;;;;;;10527593;28;20404;-67
2022/04/01 07:07:31;;;;;;;12.80;2.80;;;3.00;99.90;;;;;;10523774;28;20047;-67
2022/04/01 07:12:33;;;;;;;4.38;2.25;;;3.00;99.90;;;;;;10517290;28;20048;-67
2022/04/01 07:17:35;;;;;;;6.78;3.03;;;3.00;99.90;;;;;;10518247;28;20052;-67
2022/04/01 07:22:42;;;;;;;;;;;2.90;99.90;;;;;;10519367;28;20052;-67
2022/04/01 07:27:44;;;;;;;9.10;2.72;;;3.00;99.90;;;;;;10517990;28;19935;-67
2022/04/01 07:32:47;;;;;;;5.05;2.67;;;3.00;99.90;;;;;;10519786;28;20117;-67
2022/04/01 07:37:49;;;;;;;5.90;2.88;;;3.00;99.90;;;;;;10532429;28;20109;-66
2022/04/01 07:42:54;;;;;;;8.00;3.33;;;3.10;99.90;;;;;;10502386;28;20052;-66
2022/04/01 07:47:55;;;;;;;7.50;2.70;;;3.10;99.90;;;;;;10515119;28;20047;-67
2022/04/01 07:52:57;;;;;;;6.18;2.15;;;3.00;99.90;;;;;;10520764;28;20494;-67
2022/04/01 07:57:59;;;;;;;6.75;2.53;;;3.00;99.90;;;;;;10521695;28;20073;-67
2022/04/01 08:03:20;;;;;;;3.10;1.92;;;3.00;99.90;;;;;;10517890;28;20044;-67
2022/04/01 08:08:22;;;;;;;5.85;2.30;;;3.00;99.90;;;;;;10523175;28;20379;-66
2022/04/01 08:13:24;;;;;;;5.35;2.38;;;3.00;99.90;;;;;;10526201;28;20144;-66
2022/04/01 08:18:27;;;;;;;6.57;2.47;;;3.00;99.90;;;;;;10521416;28;20054;-65
2022/04/01 08:23:34;;;;;;;3.42;1.77;;;3.00;99.90;;;;;;10520167;28;20040;-67
2022/04/01 08:28:36;;;;;;;5.83;2.13;;;2.90;99.90;;;;;;10525484;28;20502;-67
2022/04/01 08:33:37;;;;;;;5.68;2.50;;;3.00;99.90;;;;;;10525415;28;20050;-66
2022/04/01 08:38:40;;;;;;;3.83;2.03;;;3.00;99.90;;;;;;10525700;28;20036;-66
2022/04/01 08:43:45;;;;;;;6.07;2.58;;;2.90;99.90;;;;;;10519058;28;20563;-65
2022/04/01 08:48:48;;;;;;;5.03;2.97;;;3.10;99.90;;;;;;10517312;28;20041;-65
2022/04/01 08:53:50;;;;;;;5.15;2.50;;;3.10;99.90;;;;;;10518843;28;20413;-66
2022/04/01 08:58:51;;;;;;;5.72;2.22;;;3.20;99.90;;;;;;10520701;28;20052;-65
2022/04/01 09:03:55;;;;;;;5.28;2.38;;;3.20;99.90;;;;;;10514141;28;20047;-65
2022/04/01 09:08:59;;;;;;;4.45;2.33;;;3.10;99.90;;;;;;10510633;28;20127;-65
2022/04/01 09:14:20;;;;;;;4.70;2.70;;;3.20;99.90;;;;;;10514623;28;20040;-64
2022/04/01 09:19:32;;;;;;;3.60;2.15;;;3.10;99.90;;;;;;10525654;28;20040;-66
2022/04/01 09:24:39;;;;;;;4.22;2.38;;;3.10;99.90;;;;;;10531497;28;20051;-65
2022/04/01 09:29:40;;;;;;;4.90;2.53;;;3.20;99.90;;;;;;10512818;28;20075;-66
2022/04/01 09:34:43;;;;;;;7.03;3.17;;;3.10;99.90;;;;;;10522442;28;20063;-65
2022/04/01 09:39:44;;;;;;;4.05;2.35;;;3.10;99.90;;;;;;10518866;28;20576;-65
2022/04/01 09:44:46;;;;;;;6.88;3.00;;;3.00;99.90;;;;;;10519287;28;20048;-65
2022/04/01 09:49:52;;;;;;;4.93;3.17;;;3.00;99.90;;;;;;10522636;28;20048;-65
2022/04/01 09:54:55;;;;;;;3.92;1.80;;;3.10;99.90;;;;;;10523046;28;20101;-65
2022/04/01 09:59:57;;;;;;;4.18;2.22;;;3.10;99.90;;;;;;10515113;28;20101;-66
2022/04/01 10:04:59;;;;;;;4.05;2.05;;;3.20;99.90;;;;;;10516347;28;20062;-65
2022/04/01 10:10:04;;;;;;;5.30;2.70;;;3.10;99.90;;;;;;10516681;28;20048;-65
2022/04/01 10:15:07;;;;;;;5.53;2.33;;;3.20;99.90;;;;;;10520755;28;20051;-66
2022/04/01 10:20:33;;;;;;;5.03;2.30;;;3.20;99.90;;;;;;10519386;28;20135;-66
2022/04/01 10:26:01;;;;;;;4.03;2.05;;;3.30;99.90;;;;;;10515883;28;20509;-65
2022/04/01 10:31:03;;;;;;;5.72;2.08;;;3.30;99.90;;;;;;10511426;28;20162;-64
2022/04/01 10:36:34;;;;;;;3.45;1.60;;;3.50;99.90;;;;;;10526342;28;20060;-65
2022/04/01 10:41:36;;;;;;;5.93;2.10;;;3.40;99.90;;;;;;10505301;28;20122;-65
2022/04/01 10:46:56;;;;;;;3.42;1.33;;;3.40;99.90;;;;;;10509002;28;20043;-65
2022/04/01 10:52:18;;;;;;;3.60;1.42;;;3.40;99.90;;;;;;10520971;28;20044;-66
2022/04/01 10:57:32;;;;;;;1.80;1.05;;;3.40;99.90;;;;;;10521255;28;20043;-67
2022/04/01 11:02:34;;;;;;;3.13;1.63;;;3.30;99.90;;;;;;10514724;28;20153;-66
2022/04/01 11:07:37;;;;;;;3.88;1.77;;;3.10;99.90;;;;;;10498486;28;20610;-66
2022/04/01 11:12:48;;;;;;;2.75;1.50;;;3.10;99.90;;;;;;10524225;28;20036;-66
2022/04/01 11:17:57;;;;;;;5.45;2.05;;;3.20;99.90;;;;;;10521208;28;20051;-66
2022/04/01 11:23:00;;;;;;;3.75;1.73;;;3.10;99.90;;;;;;10500481;28;20437;-66
2022/04/01 11:28:08;;;;;;;4.13;2.42;;;3.20;99.90;;;;;;10526833;28;20040;-65
2022/04/01 11:33:16;;;;;;;4.38;1.83;;;3.20;99.90;;;;;;10522211;28;20093;-66
2022/04/01 11:38:20;;;;;;;3.45;2.05;;;3.10;99.90;;;;;;10526026;28;20040;-65
2022/04/01 11:43:25;;;;;;;4.43;2.13;;;3.00;99.90;;;;;;10522086;28;20048;-65
2022/04/01 11:48:31;;;;;;;3.53;1.60;;;3.20;99.90;;;;;;10522125;28;20059;-65
2022/04/01 11:53:47;;;;;;;3.20;1.77;;;3.30;99.90;;;;;;10532507;28;20074;-66
2022/04/01 11:58:52;;;;;;;3.92;1.65;;;3.40;99.90;;;;;;10493159;28;20286;-65
2022/04/01 12:04:11;;;;;;;2.17;1.30;;;3.30;99.90;;;;;;10518237;28;20387;-65
2022/04/01 12:09:13;;;;;;;2.63;1.13;;;3.40;99.90;;;;;;10527238;28;20435;-65
2022/04/01 12:14:25;;;;;;;3.75;1.45;;;3.20;99.90;;;;;;10515413;28;20105;-65
2022/04/01 12:19:27;;;;;;;2.92;1.52;;;3.10;99.90;;;;;;10513089;28;20044;-65
2022/04/01 12:24:30;;;;;;;2.70;1.55;;;2.90;99.90;;;;;;10516167;28;20074;-66
2022/04/01 12:29:33;;;;;;;3.20;1.50;;;3.00;99.90;;;;;;10520989;28;20117;-66
2022/04/01 12:34:35;;;;;;;3.63;1.67;;;3.00;99.90;;;;;;10505926;28;20052;-65
2022/04/01 12:39:39;;;;;;;2.70;1.75;;;3.00;99.90;;;;;;10493031;28;20052;-65
2022/04/01 12:44:41;;;;;;;2.33;1.20;;;3.00;99.90;;;;;;10505032;28;20048;-65
2022/04/01 12:49:43;;;;;;;2.92;1.55;;;2.90;99.90;;;;;;10518659;28;20049;-66
2022/04/01 12:54:50;;;;;;;2.55;1.90;;;2.90;99.90;;;;;;10525606;28;20040;-66
2022/04/01 12:59:52;;;;;;;3.50;1.65;;;2.70;99.90;;;;;;10520530;28;20051;-65
2022/04/01 13:04:56;;;;;;;3.45;2.00;;;2.60;99.90;;;;;;10522150;28;20062;-65
2022/04/01 13:10:00;;;;;;;2.90;1.60;;;2.50;99.90;;;;;;10515034;28;20043;-65
2022/04/01 13:15:08;;;;;;;3.25;1.50;;;2.50;99.90;;;;;;10504153;28;20093;-66
2022/04/01 13:20:12;;;;;;;2.67;1.60;;;2.40;99.90;;;;;;10517035;28;20118;-65
2022/04/01 13:25:15;;;;;;;2.85;1.70;;;2.30;99.90;;;;;;10509755;28;20047;-64
2022/04/01 13:30:20;;;;;;;3.20;1.70;;;2.30;99.90;;;;;;10512559;28;20110;-65
2022/04/01 13:35:21;;;;;;;3.70;1.60;;;2.30;99.90;;;;;;10514901;28;20363;-66
2022/04/01 13:40:23;;;;;;;3.15;1.48;;;2.30;99.90;;;;;;10512892;28;20101;-65
2022/04/01 13:45:33;;;;;;;3.50;2.13;;;2.30;99.90;;;;;;10506442;28;20501;-67
2022/04/01 13:50:36;;;;;;;7.43;2.83;;;2.10;99.90;;;;;;10520389;28;20405;-65
2022/04/01 13:55:37;;;;;;;4.13;2.40;;;2.10;99.90;;;;;;10512955;28;20066;-66
2022/04/01 14:00:39;;;;;;;4.35;2.42;;;2.00;99.90;;;;;;10517621;28;20428;-65
2022/04/01 14:05:41;;;;;;;9.02;2.83;;;2.00;99.90;;;;;;10502367;28;20514;-66
2022/04/01 14:10:43;;;;;;;2.20;1.92;;;1.90;99.90;;;;;;10518270;28;20040;-63
2022/04/01 14:15:45;;;;;;;4.35;1.83;;;1.90;99.90;;;;;;10506751;28;20043;-65
2022/04/01 14:20:48;;;;;;;3.90;2.40;;;1.90;99.90;;;;;;10521246;28;20551;-66
2022/04/01 14:25:51;;;;;;;3.92;2.13;;;1.90;99.90;;;;;;10522199;28;20059;-66
2022/04/01 14:30:52;;;;;;;3.22;2.35;;;1.90;99.90;;;;;;10525741;28;20036;-66
2022/04/01 14:35:54;;;;;;;3.13;1.70;;;1.90;99.90;;;;;;10524323;28;20511;-66
2022/04/01 14:40:57;;;;;;;4.45;2.70;;;1.90;99.90;;;;;;10534015;28;20116;-67
2022/04/01 14:45:59;;;;;;;3.50;2.10;;;1.90;99.90;;;;;;10536357;28;20109;-67
2022/04/01 14:51:02;;;;;;;5.30;2.45;;;1.90;99.90;;;;;;10518342;28;20490;-67
2022/04/01 14:56:04;;;;;;;2.47;1.73;;;1.80;99.90;;;;;;10536625;28;20055;-68
2022/04/01 15:01:06;;;;;;;4.00;2.13;;;1.70;99.90;;;;;;10527796;28;20125;-67
2022/04/01 15:06:07;;;;;;;3.90;2.00;;;1.70;99.90;;;;;;10521975;28;20433;-67
2022/04/01 15:11:09;;;;;;;7.13;2.05;;;1.60;99.90;;;;;;10517147;28;20105;-66
2022/04/01 15:16:11;;;;;;;3.85;2.05;;;1.60;99.90;;;;;;10520495;28;20052;-67
2022/04/01 15:21:13;;;;;;;4.32;1.90;;;1.50;99.90;;;;;;10520525;28;20055;-66
2022/04/01 15:26:15;;;;;;;4.07;1.60;;;1.60;99.90;;;;;;10520223;28;20105;-67
2022/04/01 15:31:16;;;;;;;4.80;1.90;;;1.70;99.90;;;;;;10527196;28;20062;-67
2022/04/01 15:36:24;;;;;;;3.10;1.98;;;1.60;99.90;;;;;;10530094;28;20115;-66
2022/04/01 15:41:30;;;;;;;4.80;1.90;;;1.50;99.90;;;;;;10523361;28;20048;-67
2022/04/01 15:46:34;;;;;;;3.75;1.40;;;1.50;99.90;;;;;;10527435;28;20105;-67
2022/04/01 15:51:38;;;;;;;2.90;1.55;;;1.50;99.90;;;;;;10523174;28;20083;-67
2022/04/01 15:56:40;;;;;;;4.88;2.08;;;1.50;99.90;;;;;;10526039;28;20076;-67
2022/04/01 16:01:42;;;;;;;5.50;1.77;;;1.40;99.90;;;;;;10533578;28;20109;-67
2022/04/01 16:06:48;;;;;;;2.75;1.80;;;1.40;99.90;;;;;;10517672;28;20048;-67
2022/04/01 16:11:51;;;;;;;3.53;1.33;;;1.30;99.90;;;;;;10531849;28;20129;-67
2022/04/01 16:16:53;;;;;;;6.07;1.42;;;1.30;99.90;;;;;;10515370;28;20053;-67
2022/04/01 16:22:01;;;;;;;4.80;1.92;;;1.20;99.90;;;;;;10526394;28;20044;-65
2022/04/01 16:27:03;;;;;;;3.38;1.85;;;1.20;99.90;;;;;;10521672;28;20070;-66
2022/04/01 16:32:05;;;;;;;5.25;1.88;;;1.10;99.90;;;;;;10522898;28;20113;-66
2022/04/01 16:37:07;;;;;;;4.13;1.88;;;1.20;99.90;;;;;;10530499;28;20685;-65
2022/04/01 16:42:10;;;;;;;5.13;2.40;;;1.10;99.90;;;;;;10527514;28;20096;-64
2022/04/01 16:47:13;;;;;;;3.20;1.75;;;1.10;99.90;;;;;;10512151;28;20048;-65
2022/04/01 16:52:15;;;;;;;6.40;1.98;;;1.10;99.90;;;;;;10511134;28;20098;-65
2022/04/01 16:57:17;;;;;;;4.57;2.05;;;1.10;99.90;;;;;;10520663;28;20052;-65
2022/04/01 17:02:18;;;;;;;3.63;1.60;;;1.10;99.90;;;;;;10510578;28;20044;-65
2022/04/01 17:12:43;;;;;;;4.97;2.00;;;1.10;99.90;;;;;;10504950;28;20492;-65
2022/04/01 17:17:46;;;;;;;4.82;2.05;;;1.10;99.90;;;;;;10525431;28;20058;-65
2022/04/01 17:22:48;;;;;;;4.53;2.35;;;1.10;99.90;;;;;;10521338;28;20120;-66
2022/04/01 17:27:50;;;;;;;4.72;2.33;;;1.00;99.90;;;;;;10510463;28;20048;-66
2022/04/01 17:32:54;;;;;;;3.50;1.77;;;1.10;99.90;;;;;;10510286;28;20048;-66
2022/04/01 17:37:56;;;;;;;4.70;2.30;;;1.10;99.90;;;;;;10530865;28;20044;-66
2022/04/01 17:42:58;;;;;;;3.45;2.15;;;1.10;99.90;;;;;;10536979;28;20040;-66
2022/04/01 17:48:02;;;;;;;3.83;1.58;;;1.10;99.90;;;;;;10508242;28;20048;-66
2022/04/01 17:53:05;;;;;;;2.60;1.92;;;1.00;99.90;;;;;;10516461;28;20048;-66
2022/04/01 17:58:14;;;;;;;2.50;1.63;;;1.00;99.90;;;;;;10526279;28;20048;-65
2022/04/01 18:03:22;;;;;;;3.38;1.70;;;1.10;99.90;;;;;;10529350;28;20042;-67
2022/04/01 18:08:27;;;;;;;4.07;1.98;;;1.10;99.90;;;;;;10539483;28;20048;-67
2022/04/01 18:13:29;;;;;;;5.20;1.90;;;1.10;99.90;;;;;;10534561;28;20508;-66
2022/04/01 18:18:32;;;;;;;3.60;1.52;;;1.10;99.90;;;;;;10533697;28;20451;-66
2022/04/01 18:23:34;;;;;;;5.45;1.30;;;1.00;99.90;;;;;;10517361;28;20061;-67
2022/04/01 18:29:13;;;;;;;2.30;1.55;;;1.00;99.90;;;;;;10514143;28;20064;-68
2022/04/01 18:34:18;;;;;;;4.25;1.50;;;1.00;99.90;;;;;;10514256;28;20041;-72
2022/04/01 18:39:23;;;;;;;3.30;1.27;;;1.10;99.90;;;;;;10522533;28;20511;-74
2022/04/01 18:44:37;;;;;;;4.22;1.52;;;1.00;99.90;;;;;;10500337;28;20060;-70
2022/04/01 18:49:40;;;;;;;2.05;1.20;;;1.00;99.90;;;;;;10514016;28;20312;-70
2022/04/01 18:54:43;;;;;;;3.38;1.38;;;0.90;99.90;;;;;;10506933;28;20047;-74
2022/04/01 18:59:44;;;;;;;1.63;1.27;;;0.90;99.90;;;;;;10500616;28;20706;-72
2022/04/01 19:04:55;;;;;;;3.15;1.58;;;0.90;99.90;;;;;;10528065;28;20036;-72
2022/04/01 19:10:02;;;;;;;2.72;1.40;;;0.90;99.90;;;;;;10518725;28;20032;-72
2022/04/01 19:15:09;;;;;;;2.67;1.02;;;0.90;99.90;;;;;;10500263;28;20257;-71
2022/04/01 19:20:12;;;;;;;2.20;1.23;;;0.90;99.90;;;;;;10501945;28;20040;-70
2022/04/01 19:25:16;;;;;;;2.80;1.10;;;0.90;99.90;;;;;;10485553;28;20055;-72
2022/04/01 19:30:18;;;;;;;3.08;1.25;;;1.00;99.90;;;;;;10528490;28;20106;-72
2022/04/01 19:35:20;;;;;;;3.42;1.25;;;1.00;99.90;;;;;;10528844;28;20035;-73
2022/04/01 19:40:21;;;;;;;5.38;1.85;;;0.90;99.90;;;;;;10504241;28;20109;-71
2022/04/01 19:45:24;;;;;;;1.50;0.70;;;1.00;99.90;;;;;;10507400;28;20043;-72
2022/04/01 19:50:26;;;;;;;3.60;1.02;;;0.90;99.90;;;;;;10483095;28;20049;-70
2022/04/01 19:55:29;;;;;;;2.67;0.93;;;1.00;99.90;;;;;;10485379;28;20055;-70
2022/04/01 20:00:31;;;;;;;2.65;1.58;;;1.00;99.90;;;;;;10464799;28;20123;-69
2022/04/01 20:05:33;;;;;;;4.03;1.25;;;1.00;99.90;;;;;;10478534;28;20064;-70
2022/04/01 20:10:35;;;;;;;5.70;1.48;;;1.00;99.90;;;;;;10483084;28;20053;-69
2022/04/01 20:15:37;;;;;;;2.22;1.00;;;1.10;99.90;;;;;;10476296;28;20514;-69
2022/04/01 20:20:41;;;;;;;2.63;1.38;;;1.00;99.90;;;;;;10459394;28;20040;-71
2022/04/01 20:25:43;;;;;;;3.97;1.35;;;1.00;99.90;;;;;;10482044;28;20047;-70
2022/04/01 20:30:44;;;;;;;1.45;0.93;;;1.00;99.90;;;;;;10478172;28;20129;-68
2022/04/01 20:35:46;;;;;;;2.28;1.63;;;1.00;99.90;;;;;;10473805;28;20398;-69
2022/04/01 20:40:48;;;;;;;2.97;1.48;;;1.00;99.90;;;;;;10474734;28;20048;-69
2022/04/01 20:45:50;;;;;;;6.20;1.52;;;1.00;99.90;;;;;;10489218;28;20130;-67
2022/04/01 20:50:52;;;;;;;5.10;1.35;;;1.00;99.90;;;;;;10501848;28;20043;-68
2022/04/01 20:55:54;;;;;;;2.85;1.15;;;1.10;99.90;;;;;;10504996;28;20055;-69
2022/04/01 21:00:55;;;;;;;3.53;0.93;;;1.10;99.90;;;;;;10528508;28;20547;-68
2022/04/01 21:05:57;;;;;;;3.42;1.38;;;1.10;99.90;;;;;;10517308;28;20123;-69
2022/04/01 21:10:59;;;;;;;2.58;0.88;;;1.10;99.90;;;;;;10527003;28;20044;-67
2022/04/01 21:16:01;;;;;;;2.47;0.93;;;1.10;99.90;;;;;;10489717;28;20126;-68
2022/04/01 21:21:21;;;;;;;2.30;1.13;;;1.10;99.90;;;;;;10516406;28;20509;-68
2022/04/01 21:31:43;;;;;;;1.30;0.77;;;1.10;99.90;;;;;;10522569;28;20097;-68
2022/04/01 21:36:46;;;;;;;3.30;1.02;;;1.10;99.90;;;;;;10514809;28;20050;-67
2022/04/01 21:41:47;;;;;;;1.33;0.65;;;1.20;99.90;;;;;;10518862;28;20044;-66
2022/04/01 21:46:49;;;;;;;1.98;0.82;;;1.20;99.90;;;;;;10504928;28;20050;-66
2022/04/01 21:51:51;;;;;;;2.88;0.70;;;1.20;99.90;;;;;;10509206;28;20057;-67
2022/04/01 21:56:53;;;;;;;1.92;0.90;;;1.20;99.90;;;;;;10515432;28;20104;-67
2022/04/01 22:01:55;;;;;;;2.42;0.80;;;1.30;99.90;;;;;;10520167;28;20072;-67
2022/04/01 22:07:03;;;;;;;2.15;0.65;;;1.20;99.90;;;;;;10503553;28;20050;-67
2022/04/01 22:12:08;;;;;;;3.58;1.38;;;1.20;99.90;;;;;;10526624;28;20428;-67
2022/04/01 22:17:10;;;;;;;2.50;1.05;;;1.20;99.90;;;;;;10506581;28;20044;-67
2022/04/01 22:22:11;;;;;;;4.25;0.82;;;1.20;99.90;;;;;;10512411;28;20056;-68
2022/04/01 22:27:13;;;;;;;1.35;0.93;;;1.20;99.90;;;;;;10501991;28;20044;-68
2022/04/01 22:32:22;;;;;;;1.92;0.93;;;1.20;99.90;;;;;;10518116;28;20052;-67
2022/04/01 22:37:24;;;;;;;1.58;0.88;;;1.20;99.90;;;;;;10505846;28;20486;-67
2022/04/01 22:47:41;;;;;;;1.00;0.70;;;1.10;99.90;;;;;;7723204;28;20041;-69
2022/04/01 22:52:43;;;;;;;9.48;1.27;;;1.10;99.90;;;;;;10390629;28;20045;-69
2022/04/01 22:57:45;;;;;;;1.10;0.60;;;1.10;99.90;;;;;;10394102;28;20053;-69
2022/04/01 23:02:47;;;;;;;3.20;1.00;;;1.10;99.90;;;;;;10392866;28;20518;-68
2022/04/01 23:07:49;;;;;;;4.05;0.80;;;1.10;99.90;;;;;;10390823;28;20045;-67
2022/04/01 23:12:52;;;;;;;1.90;0.88;;;1.10;99.90;;;;;;10379885;28;20056;-67
2022/04/01 23:18:00;;;;;;;2.22;0.75;;;1.00;99.90;;;;;;10380150;28;20620;-67
2022/04/01 23:23:02;;;;;;;1.48;0.70;;;1.00;99.90;;;;;;10390810;28;20041;-68
2022/04/01 23:28:04;;;;;;;2.90;0.90;;;1.00;99.90;;;;;;10360100;28;20057;-68
2022/04/01 23:33:06;;;;;;;3.33;0.70;;;1.10;99.90;;;;;;10391229;28;20057;-68
2022/04/01 23:38:08;;;;;;;2.75;0.88;;;1.00;99.90;;;;;;10393378;28;20046;-68
2022/04/01 23:43:13;;;;;;;2.83;0.73;;;1.00;99.90;;;;;;10376655;28;20130;-67
2022/04/01 23:48:16;;;;;;;4.18;0.95;;;1.00;99.90;;;;;;10388669;28;20052;-67
2022/04/01 23:53:18;;;;;;;1.77;0.60;;;1.00;99.90;;;;;;10389090;28;20068;-66
2022/04/01 23:58:20;;;;;;;2.15;0.80;;;1.00;99.90;;;;;;10381084;28;20377;-68
